NO-0045 weather

Kalnes Sykehus Heliport
Østfold, Norway

Public forecast

Using degrees Celsius for public forecast. Weather courtesy of forecast.io.

Closest aviation weather report (METAR) to Kalnes Sykehus Heliport

Report is more than 6 hours old.

Closest report is Moss Airport, Rygge, 8.1 nm (15.1 km) WNW. Retrieved 2020/06/01 18:50 UTC (6 hours ago):

ENRY 011850Z 20004KT CAVOK 22/07 Q1024

Closest aviation forecast (TAF) to Kalnes Sykehus Heliport

Forecast is more than 6 hours old.

Closest forecast is Moss Airport, Rygge, 8.1 nm (15.1 km) WNW. Retrieved 2020/06/01 19:06 UTC (6 hours ago):

TAF TAF ENRY 011957Z 0119/0218 CNL